SAAR/ROS METAR and TAF weather

Enter ICAO airport designator
Station Type Date Time Source
SAAR METAR 2021/03/08 15:00 UTC NOAA

SAAR 081500Z 27004KT CAVOK 22/17 Q1016


Station Type Date Time Source
SAAR Decoded METAR 2021/03/08 15:00 UTC NOAA

Rosario Aerodrome, Argentina (SAAR) 32-55S 060-47W 25M
Mar 08, 2021 - 10:00 AM EST / 2021.03.08 1500 UTC
Wind: from the W (270 degrees) at 5 MPH (4 KT):0
Visibility: greater than 7 mile(s):0
Temperature: 71 F (22 C)
Dew Point: 62 F (17 C)
Relative Humidity: 73%
Pressure (altimeter): 30.00 in. Hg (1016 hPa)
ob: SAAR 081500Z 27004KT CAVOK 22/17 Q1016
cycle: 15

Station Type Date Time Source
SAAR TAF 2021/03/08 12:30 UTC NOAA

TAF TAF SAAR 081100Z 0812/0912 18010KT CAVOK TX30/0819Z TN17/0909Z
TEMPO 0814/0817 8000 -SHRA SCT025 BKN035 FEW050CB
BECMG 0900/0902 VRB05KT

Example: see airport list